sensor_id;sensor_type;location;lat;lon;timestamp;temperature;humidity
60723;DHT22;46574;52.818;6.516;2024-02-04T00:00:48;8.20;99.90
60723;DHT22;46574;52.818;6.516;2024-02-04T00:03:14;8.10;99.90
60723;DHT22;46574;52.818;6.516;2024-02-04T00:05:39;8.10;99.90
60723;DHT22;46574;52.818;6.516;2024-02-04T00:08:05;8.10;99.90
60723;DHT22;46574;52.818;6.516;2024-02-04T00:10:31;8.10;99.90
60723;DHT22;46574;52.818;6.516;2024-02-04T00:12:57;8.10;99.90
60723;DHT22;46574;52.818;6.516;2024-02-04T00:15:23;8.00;99.90
60723;DHT22;46574;52.818;6.516;2024-02-04T00:17:49;8.00;99.90
60723;DHT22;46574;52.818;6.516;2024-02-04T00:20:15;8.00;99.90
60723;DHT22;46574;52.818;6.516;2024-02-04T00:22:40;8.00;99.90
60723;DHT22;46574;52.818;6.516;2024-02-04T00:25:06;8.00;99.90
60723;DHT22;46574;52.818;6.516;2024-02-04T00:27:35;8.00;99.90
60723;DHT22;46574;52.818;6.516;2024-02-04T00:30:01;8.00;99.90
60723;DHT22;46574;52.818;6.516;2024-02-04T00:32:27;8.00;99.90
60723;DHT22;46574;52.818;6.516;2024-02-04T00:34:53;8.00;99.90
60723;DHT22;46574;52.818;6.516;2024-02-04T00:37:19;8.10;99.90
60723;DHT22;46574;52.818;6.516;2024-02-04T00:39:45;8.10;99.90
60723;DHT22;46574;52.818;6.516;2024-02-04T00:42:11;8.10;99.90
60723;DHT22;46574;52.818;6.516;2024-02-04T00:44:36;8.10;99.90
60723;DHT22;46574;52.818;6.516;2024-02-04T00:47:02;8.20;99.90
60723;DHT22;46574;52.818;6.516;2024-02-04T00:49:28;8.20;99.90
60723;DHT22;46574;52.818;6.516;2024-02-04T00:51:54;8.20;99.90
60723;DHT22;46574;52.818;6.516;2024-02-04T00:54:20;8.10;99.90
60723;DHT22;46574;52.818;6.516;2024-02-04T00:56:45;8.10;99.90
60723;DHT22;46574;52.818;6.516;2024-02-04T00:59:11;8.10;99.90
60723;DHT22;46574;52.818;6.516;2024-02-04T01:01:37;8.10;99.90
60723;DHT22;46574;52.818;6.516;2024-02-04T01:04:03;8.10;99.90
60723;DHT22;46574;52.818;6.516;2024-02-04T01:06:30;8.10;99.90
60723;DHT22;46574;52.818;6.516;2024-02-04T01:08:58;8.10;99.90
60723;DHT22;46574;52.818;6.516;2024-02-04T01:11:24;8.10;99.90
60723;DHT22;46574;52.818;6.516;2024-02-04T01:13:50;8.10;99.90
60723;DHT22;46574;52.818;6.516;2024-02-04T01:16:15;8.10;99.90
60723;DHT22;46574;52.818;6.516;2024-02-04T01:18:41;8.20;99.90
60723;DHT22;46574;52.818;6.516;2024-02-04T01:21:07;8.20;99.90
60723;DHT22;46574;52.818;6.516;2024-02-04T01:23:34;8.20;99.90
60723;DHT22;46574;52.818;6.516;2024-02-04T01:26:00;8.20;99.90
60723;DHT22;46574;52.818;6.516;2024-02-04T01:28:25;8.30;99.90
60723;DHT22;46574;52.818;6.516;2024-02-04T01:30:51;8.30;99.90
60723;DHT22;46574;52.818;6.516;2024-02-04T01:33:17;8.20;99.90
60723;DHT22;46574;52.818;6.516;2024-02-04T01:35:42;8.30;99.90
60723;DHT22;46574;52.818;6.516;2024-02-04T01:38:08;8.20;99.90
60723;DHT22;46574;52.818;6.516;2024-02-04T01:40:33;8.20;99.90
60723;DHT22;46574;52.818;6.516;2024-02-04T01:42:59;8.10;99.90
60723;DHT22;46574;52.818;6.516;2024-02-04T01:45:25;8.10;99.90
60723;DHT22;46574;52.818;6.516;2024-02-04T01:47:51;8.20;99.90
60723;DHT22;46574;52.818;6.516;2024-02-04T01:50:17;8.20;99.90
60723;DHT22;46574;52.818;6.516;2024-02-04T01:52:44;8.20;99.90
60723;DHT22;46574;52.818;6.516;2024-02-04T01:55:11;8.20;99.90
60723;DHT22;46574;52.818;6.516;2024-02-04T01:57:37;8.10;99.90
60723;DHT22;46574;52.818;6.516;2024-02-04T02:00:03;8.10;99.90
60723;DHT22;46574;52.818;6.516;2024-02-04T02:02:34;8.10;99.90
60723;DHT22;46574;52.818;6.516;2024-02-04T02:05:04;8.00;99.90
60723;DHT22;46574;52.818;6.516;2024-02-04T02:07:30;8.00;99.90
60723;DHT22;46574;52.818;6.516;2024-02-04T02:09:56;8.00;99.90
60723;DHT22;46574;52.818;6.516;2024-02-04T02:12:28;8.00;99.90
60723;DHT22;46574;52.818;6.516;2024-02-04T02:15:03;8.00;99.90
60723;DHT22;46574;52.818;6.516;2024-02-04T02:17:43;8.00;99.90
60723;DHT22;46574;52.818;6.516;2024-02-04T02:20:19;8.00;99.90
60723;DHT22;46574;52.818;6.516;2024-02-04T02:23:08;8.00;99.90
60723;DHT22;46574;52.818;6.516;2024-02-04T02:25:38;8.00;99.90
60723;DHT22;46574;52.818;6.516;2024-02-04T02:28:04;7.90;99.90
60723;DHT22;46574;52.818;6.516;2024-02-04T02:30:30;7.90;99.90
60723;DHT22;46574;52.818;6.516;2024-02-04T02:32:56;7.90;99.90
60723;DHT22;46574;52.818;6.516;2024-02-04T02:35:23;7.80;99.90
60723;DHT22;46574;52.818;6.516;2024-02-04T02:40:30;7.80;99.90
60723;DHT22;46574;52.818;6.516;2024-02-04T02:43:01;7.90;99.90
60723;DHT22;46574;52.818;6.516;2024-02-04T02:45:27;7.80;99.90
60723;DHT22;46574;52.818;6.516;2024-02-04T02:47:54;7.80;99.90
60723;DHT22;46574;52.818;6.516;2024-02-04T02:50:22;7.80;99.90
60723;DHT22;46574;52.818;6.516;2024-02-04T02:52:47;7.80;99.90
60723;DHT22;46574;52.818;6.516;2024-02-04T02:55:13;7.80;99.90
60723;DHT22;46574;52.818;6.516;2024-02-04T02:57:38;7.80;99.90
60723;DHT22;46574;52.818;6.516;2024-02-04T03:00:05;7.70;99.90
60723;DHT22;46574;52.818;6.516;2024-02-04T03:02:32;7.70;99.90
60723;DHT22;46574;52.818;6.516;2024-02-04T03:04:57;7.70;99.90
60723;DHT22;46574;52.818;6.516;2024-02-04T03:07:23;7.70;99.90
60723;DHT22;46574;52.818;6.516;2024-02-04T03:09:49;7.70;99.90
60723;DHT22;46574;52.818;6.516;2024-02-04T03:12:14;7.70;99.90
60723;DHT22;46574;52.818;6.516;2024-02-04T03:14:40;7.60;99.90
60723;DHT22;46574;52.818;6.516;2024-02-04T03:17:06;7.60;99.90
60723;DHT22;46574;52.818;6.516;2024-02-04T03:19:31;7.60;99.90
60723;DHT22;46574;52.818;6.516;2024-02-04T03:21:57;7.60;99.90
60723;DHT22;46574;52.818;6.516;2024-02-04T03:24:23;7.50;99.90
60723;DHT22;46574;52.818;6.516;2024-02-04T03:26:48;7.40;99.90
60723;DHT22;46574;52.818;6.516;2024-02-04T03:29:14;7.40;99.90
60723;DHT22;46574;52.818;6.516;2024-02-04T03:31:40;7.40;99.90
60723;DHT22;46574;52.818;6.516;2024-02-04T03:34:05;7.40;99.90
60723;DHT22;46574;52.818;6.516;2024-02-04T03:36:31;7.40;99.90
60723;DHT22;46574;52.818;6.516;2024-02-04T03:38:57;7.40;99.90
60723;DHT22;46574;52.818;6.516;2024-02-04T03:41:23;7.40;99.90
60723;DHT22;46574;52.818;6.516;2024-02-04T03:43:48;7.30;99.90
60723;DHT22;46574;52.818;6.516;2024-02-04T03:46:15;7.30;99.90
60723;DHT22;46574;52.818;6.516;2024-02-04T03:48:41;7.30;99.90
60723;DHT22;46574;52.818;6.516;2024-02-04T03:51:07;7.30;99.90
60723;DHT22;46574;52.818;6.516;2024-02-04T03:53:33;7.30;99.90
60723;DHT22;46574;52.818;6.516;2024-02-04T03:55:59;7.20;99.90
60723;DHT22;46574;52.818;6.516;2024-02-04T03:58:24;7.20;99.90
60723;DHT22;46574;52.818;6.516;2024-02-04T04:00:58;7.30;99.90
60723;DHT22;46574;52.818;6.516;2024-02-04T04:03:24;7.20;99.90
60723;DHT22;46574;52.818;6.516;2024-02-04T04:05:50;7.20;99.90
60723;DHT22;46574;52.818;6.516;2024-02-04T04:08:16;7.20;99.90
60723;DHT22;46574;52.818;6.516;2024-02-04T04:10:43;7.20;99.90
60723;DHT22;46574;52.818;6.516;2024-02-04T04:13:09;7.20;99.90
60723;DHT22;46574;52.818;6.516;2024-02-04T04:15:34;7.20;99.90
60723;DHT22;46574;52.818;6.516;2024-02-04T04:18:00;7.20;99.90
60723;DHT22;46574;52.818;6.516;2024-02-04T04:20:29;7.20;99.90
60723;DHT22;46574;52.818;6.516;2024-02-04T04:22:54;7.20;99.90
60723;DHT22;46574;52.818;6.516;2024-02-04T04:25:20;7.20;99.90
60723;DHT22;46574;52.818;6.516;2024-02-04T04:27:46;7.20;99.90
60723;DHT22;46574;52.818;6.516;2024-02-04T04:30:12;7.20;99.90
60723;DHT22;46574;52.818;6.516;2024-02-04T04:32:37;7.20;99.90
60723;DHT22;46574;52.818;6.516;2024-02-04T04:35:03;7.20;99.90
60723;DHT22;46574;52.818;6.516;2024-02-04T04:37:29;7.20;99.90
60723;DHT22;46574;52.818;6.516;2024-02-04T04:39:55;7.20;99.90
60723;DHT22;46574;52.818;6.516;2024-02-04T04:42:20;7.20;99.90
60723;DHT22;46574;52.818;6.516;2024-02-04T04:44:46;7.20;99.90
60723;DHT22;46574;52.818;6.516;2024-02-04T04:47:12;7.20;99.90
60723;DHT22;46574;52.818;6.516;2024-02-04T04:49:38;7.30;99.90
60723;DHT22;46574;52.818;6.516;2024-02-04T04:52:03;7.20;99.90
60723;DHT22;46574;52.818;6.516;2024-02-04T04:54:29;7.20;99.90
60723;DHT22;46574;52.818;6.516;2024-02-04T04:56:55;7.20;99.90
60723;DHT22;46574;52.818;6.516;2024-02-04T04:59:20;7.20;99.90
60723;DHT22;46574;52.818;6.516;2024-02-04T05:01:49;7.20;99.90
60723;DHT22;46574;52.818;6.516;2024-02-04T05:04:16;7.20;99.90
60723;DHT22;46574;52.818;6.516;2024-02-04T05:06:42;7.20;99.90
60723;DHT22;46574;52.818;6.516;2024-02-04T05:09:07;7.20;99.90
60723;DHT22;46574;52.818;6.516;2024-02-04T05:11:34;7.30;99.90
60723;DHT22;46574;52.818;6.516;2024-02-04T05:13:59;7.30;99.90
60723;DHT22;46574;52.818;6.516;2024-02-04T05:16:25;7.30;99.90
60723;DHT22;46574;52.818;6.516;2024-02-04T05:18:51;7.30;99.90
60723;DHT22;46574;52.818;6.516;2024-02-04T05:21:17;7.30;99.90
60723;DHT22;46574;52.818;6.516;2024-02-04T05:23:42;7.30;99.90
60723;DHT22;46574;52.818;6.516;2024-02-04T05:26:08;7.30;99.90
60723;DHT22;46574;52.818;6.516;2024-02-04T05:28:33;7.30;99.90
60723;DHT22;46574;52.818;6.516;2024-02-04T05:31:01;7.30;99.90
60723;DHT22;46574;52.818;6.516;2024-02-04T05:33:28;7.30;99.90
60723;DHT22;46574;52.818;6.516;2024-02-04T05:35:53;7.30;99.90
60723;DHT22;46574;52.818;6.516;2024-02-04T05:38:19;7.30;99.90
60723;DHT22;46574;52.818;6.516;2024-02-04T05:40:44;7.30;99.90
60723;DHT22;46574;52.818;6.516;2024-02-04T05:43:10;7.30;99.90
60723;DHT22;46574;52.818;6.516;2024-02-04T05:45:39;7.40;99.90
60723;DHT22;46574;52.818;6.516;2024-02-04T05:48:08;7.40;99.90
60723;DHT22;46574;52.818;6.516;2024-02-04T05:50:34;7.40;99.90
60723;DHT22;46574;52.818;6.516;2024-02-04T05:53:00;7.40;99.90
60723;DHT22;46574;52.818;6.516;2024-02-04T05:55:26;7.40;99.90
60723;DHT22;46574;52.818;6.516;2024-02-04T05:57:51;7.40;99.90
60723;DHT22;46574;52.818;6.516;2024-02-04T06:00:17;7.40;99.90
60723;DHT22;46574;52.818;6.516;2024-02-04T06:02:43;7.40;99.90
60723;DHT22;46574;52.818;6.516;2024-02-04T06:05:10;7.50;99.90
60723;DHT22;46574;52.818;6.516;2024-02-04T06:07:35;7.50;99.90
60723;DHT22;46574;52.818;6.516;2024-02-04T06:10:01;7.50;99.90
60723;DHT22;46574;52.818;6.516;2024-02-04T06:12:29;7.50;99.90
60723;DHT22;46574;52.818;6.516;2024-02-04T06:14:55;7.50;99.90
60723;DHT22;46574;52.818;6.516;2024-02-04T06:17:20;7.50;99.90
60723;DHT22;46574;52.818;6.516;2024-02-04T06:19:46;7.50;99.90
60723;DHT22;46574;52.818;6.516;2024-02-04T06:22:12;7.60;99.90
60723;DHT22;46574;52.818;6.516;2024-02-04T06:24:37;7.60;99.90
60723;DHT22;46574;52.818;6.516;2024-02-04T06:27:10;7.60;99.90
60723;DHT22;46574;52.818;6.516;2024-02-04T06:29:36;7.60;99.90
60723;DHT22;46574;52.818;6.516;2024-02-04T06:32:02;7.60;99.90
60723;DHT22;46574;52.818;6.516;2024-02-04T06:34:28;7.70;99.90
60723;DHT22;46574;52.818;6.516;2024-02-04T06:36:54;7.70;99.90
60723;DHT22;46574;52.818;6.516;2024-02-04T06:39:19;7.70;99.90
60723;DHT22;46574;52.818;6.516;2024-02-04T06:41:45;7.70;99.90
60723;DHT22;46574;52.818;6.516;2024-02-04T06:44:11;7.70;99.90
60723;DHT22;46574;52.818;6.516;2024-02-04T06:46:37;7.70;99.90
60723;DHT22;46574;52.818;6.516;2024-02-04T06:49:03;7.70;99.90
60723;DHT22;46574;52.818;6.516;2024-02-04T06:51:28;7.70;99.90
60723;DHT22;46574;52.818;6.516;2024-02-04T06:53:54;7.70;99.90
60723;DHT22;46574;52.818;6.516;2024-02-04T06:56:20;7.70;99.90
60723;DHT22;46574;52.818;6.516;2024-02-04T06:58:45;7.70;99.90
60723;DHT22;46574;52.818;6.516;2024-02-04T07:01:11;7.70;99.90
60723;DHT22;46574;52.818;6.516;2024-02-04T07:03:37;7.70;99.90
60723;DHT22;46574;52.818;6.516;2024-02-04T07:06:04;7.70;99.90
60723;DHT22;46574;52.818;6.516;2024-02-04T07:08:30;7.70;99.90
60723;DHT22;46574;52.818;6.516;2024-02-04T07:10:55;7.70;99.90
60723;DHT22;46574;52.818;6.516;2024-02-04T07:13:21;7.70;99.90
60723;DHT22;46574;52.818;6.516;2024-02-04T07:15:47;7.80;99.90
60723;DHT22;46574;52.818;6.516;2024-02-04T07:18:13;7.80;99.90
60723;DHT22;46574;52.818;6.516;2024-02-04T07:20:39;7.80;99.90
60723;DHT22;46574;52.818;6.516;2024-02-04T07:23:05;7.80;99.90
60723;DHT22;46574;52.818;6.516;2024-02-04T07:25:31;7.70;99.90
60723;DHT22;46574;52.818;6.516;2024-02-04T07:27:57;7.70;99.90
60723;DHT22;46574;52.818;6.516;2024-02-04T07:30:24;7.70;99.90
60723;DHT22;46574;52.818;6.516;2024-02-04T07:32:49;7.80;99.90
60723;DHT22;46574;52.818;6.516;2024-02-04T07:35:15;7.70;99.90
60723;DHT22;46574;52.818;6.516;2024-02-04T07:37:41;7.80;99.90
60723;DHT22;46574;52.818;6.516;2024-02-04T07:40:07;7.80;99.90
60723;DHT22;46574;52.818;6.516;2024-02-04T07:42:32;7.80;99.90
60723;DHT22;46574;52.818;6.516;2024-02-04T07:44:58;7.90;99.90
60723;DHT22;46574;52.818;6.516;2024-02-04T07:47:24;8.00;99.90
60723;DHT22;46574;52.818;6.516;2024-02-04T07:49:50;8.00;99.90
60723;DHT22;46574;52.818;6.516;2024-02-04T07:52:16;8.00;99.90
60723;DHT22;46574;52.818;6.516;2024-02-04T07:54:42;8.00;99.90
60723;DHT22;46574;52.818;6.516;2024-02-04T07:57:09;8.10;99.90
60723;DHT22;46574;52.818;6.516;2024-02-04T07:59:35;8.10;99.90
60723;DHT22;46574;52.818;6.516;2024-02-04T08:02:01;8.20;99.90
60723;DHT22;46574;52.818;6.516;2024-02-04T08:04:26;8.20;99.90
60723;DHT22;46574;52.818;6.516;2024-02-04T08:06:53;8.20;99.90
60723;DHT22;46574;52.818;6.516;2024-02-04T08:09:19;8.30;99.90
60723;DHT22;46574;52.818;6.516;2024-02-04T08:11:44;8.40;99.90
60723;DHT22;46574;52.818;6.516;2024-02-04T08:14:10;8.40;99.90
60723;DHT22;46574;52.818;6.516;2024-02-04T08:16:35;8.50;99.90
60723;DHT22;46574;52.818;6.516;2024-02-04T08:19:01;8.40;99.90
60723;DHT22;46574;52.818;6.516;2024-02-04T08:21:27;8.50;99.90
60723;DHT22;46574;52.818;6.516;2024-02-04T08:23:52;8.50;99.90
60723;DHT22;46574;52.818;6.516;2024-02-04T08:26:18;8.60;99.90
60723;DHT22;46574;52.818;6.516;2024-02-04T08:28:44;8.60;99.90
60723;DHT22;46574;52.818;6.516;2024-02-04T08:31:09;8.70;99.90
60723;DHT22;46574;52.818;6.516;2024-02-04T08:33:35;8.70;99.90
60723;DHT22;46574;52.818;6.516;2024-02-04T08:36:00;8.70;99.90
60723;DHT22;46574;52.818;6.516;2024-02-04T08:38:26;8.70;99.90
60723;DHT22;46574;52.818;6.516;2024-02-04T08:40:52;8.70;99.90
60723;DHT22;46574;52.818;6.516;2024-02-04T08:43:17;8.80;99.90
60723;DHT22;46574;52.818;6.516;2024-02-04T08:45:43;8.80;99.90
60723;DHT22;46574;52.818;6.516;2024-02-04T08:48:09;8.80;99.90
60723;DHT22;46574;52.818;6.516;2024-02-04T08:50:34;8.80;99.90
60723;DHT22;46574;52.818;6.516;2024-02-04T08:53:00;8.90;99.90
60723;DHT22;46574;52.818;6.516;2024-02-04T08:55:26;8.90;99.90
60723;DHT22;46574;52.818;6.516;2024-02-04T08:57:51;8.90;99.90
60723;DHT22;46574;52.818;6.516;2024-02-04T09:00:19;8.90;99.90
60723;DHT22;46574;52.818;6.516;2024-02-04T09:02:45;8.90;99.90
60723;DHT22;46574;52.818;6.516;2024-02-04T09:05:12;8.90;99.90
60723;DHT22;46574;52.818;6.516;2024-02-04T09:07:37;9.00;99.90
60723;DHT22;46574;52.818;6.516;2024-02-04T09:10:04;9.00;99.90
60723;DHT22;46574;52.818;6.516;2024-02-04T09:12:30;9.00;99.90
60723;DHT22;46574;52.818;6.516;2024-02-04T09:14:56;9.00;99.90
60723;DHT22;46574;52.818;6.516;2024-02-04T09:17:21;9.00;99.90
60723;DHT22;46574;52.818;6.516;2024-02-04T09:19:47;9.00;99.90
60723;DHT22;46574;52.818;6.516;2024-02-04T09:22:13;9.00;99.90
60723;DHT22;46574;52.818;6.516;2024-02-04T09:24:38;9.10;99.90
60723;DHT22;46574;52.818;6.516;2024-02-04T09:27:04;9.10;99.90
60723;DHT22;46574;52.818;6.516;2024-02-04T09:29:30;9.20;99.90
60723;DHT22;46574;52.818;6.516;2024-02-04T09:31:55;9.20;99.90
60723;DHT22;46574;52.818;6.516;2024-02-04T09:34:21;9.20;99.90
60723;DHT22;46574;52.818;6.516;2024-02-04T09:36:47;9.30;99.90
60723;DHT22;46574;52.818;6.516;2024-02-04T09:39:12;9.30;99.90
60723;DHT22;46574;52.818;6.516;2024-02-04T09:41:38;9.30;99.90
60723;DHT22;46574;52.818;6.516;2024-02-04T09:44:04;9.40;99.90
60723;DHT22;46574;52.818;6.516;2024-02-04T09:46:32;9.40;99.90
60723;DHT22;46574;52.818;6.516;2024-02-04T09:48:58;9.40;99.90
60723;DHT22;46574;52.818;6.516;2024-02-04T09:51:26;9.50;99.90
60723;DHT22;46574;52.818;6.516;2024-02-04T09:53:53;9.40;99.90
60723;DHT22;46574;52.818;6.516;2024-02-04T09:56:21;9.50;99.90
60723;DHT22;46574;52.818;6.516;2024-02-04T09:58:47;9.50;99.90
60723;DHT22;46574;52.818;6.516;2024-02-04T10:01:14;9.40;99.90
60723;DHT22;46574;52.818;6.516;2024-02-04T10:03:41;9.50;99.90
60723;DHT22;46574;52.818;6.516;2024-02-04T10:06:07;9.50;99.90
60723;DHT22;46574;52.818;6.516;2024-02-04T10:08:35;9.60;99.90
60723;DHT22;46574;52.818;6.516;2024-02-04T10:11:01;9.70;99.90
60723;DHT22;46574;52.818;6.516;2024-02-04T10:13:27;9.80;99.90
60723;DHT22;46574;52.818;6.516;2024-02-04T10:15:52;9.80;99.90
60723;DHT22;46574;52.818;6.516;2024-02-04T10:18:18;9.90;99.90
60723;DHT22;46574;52.818;6.516;2024-02-04T10:20:44;10.00;99.90
60723;DHT22;46574;52.818;6.516;2024-02-04T10:23:09;10.00;99.90
60723;DHT22;46574;52.818;6.516;2024-02-04T10:25:35;10.00;99.90
60723;DHT22;46574;52.818;6.516;2024-02-04T10:28:01;9.90;99.90
60723;DHT22;46574;52.818;6.516;2024-02-04T10:30:27;10.00;99.90
60723;DHT22;46574;52.818;6.516;2024-02-04T10:32:53;9.90;99.90
60723;DHT22;46574;52.818;6.516;2024-02-04T10:35:23;9.90;99.90
60723;DHT22;46574;52.818;6.516;2024-02-04T10:37:52;9.90;99.90
60723;DHT22;46574;52.818;6.516;2024-02-04T10:40:18;9.90;99.90
60723;DHT22;46574;52.818;6.516;2024-02-04T10:42:44;9.90;99.90
60723;DHT22;46574;52.818;6.516;2024-02-04T10:45:10;9.90;99.90
60723;DHT22;46574;52.818;6.516;2024-02-04T10:47:37;9.90;99.90
60723;DHT22;46574;52.818;6.516;2024-02-04T10:50:04;9.90;99.90
60723;DHT22;46574;52.818;6.516;2024-02-04T10:52:40;9.90;99.90
60723;DHT22;46574;52.818;6.516;2024-02-04T10:55:11;9.90;99.90
60723;DHT22;46574;52.818;6.516;2024-02-04T10:57:38;9.90;99.90
60723;DHT22;46574;52.818;6.516;2024-02-04T11:00:04;9.90;99.90
60723;DHT22;46574;52.818;6.516;2024-02-04T11:02:38;9.90;99.90
60723;DHT22;46574;52.818;6.516;2024-02-04T11:05:05;9.90;99.90
60723;DHT22;46574;52.818;6.516;2024-02-04T11:07:34;9.90;99.90
60723;DHT22;46574;52.818;6.516;2024-02-04T11:10:00;9.90;99.90
60723;DHT22;46574;52.818;6.516;2024-02-04T11:12:28;9.90;99.90
60723;DHT22;46574;52.818;6.516;2024-02-04T11:14:59;9.90;99.90
60723;DHT22;46574;52.818;6.516;2024-02-04T11:20:30;9.80;99.90
60723;DHT22;46574;52.818;6.516;2024-02-04T11:26:05;9.90;99.90
60723;DHT22;46574;52.818;6.516;2024-02-04T11:28:31;9.90;99.90
60723;DHT22;46574;52.818;6.516;2024-02-04T11:30:57;9.90;99.90
60723;DHT22;46574;52.818;6.516;2024-02-04T11:33:23;10.00;99.90
60723;DHT22;46574;52.818;6.516;2024-02-04T11:35:59;10.10;99.90
60723;DHT22;46574;52.818;6.516;2024-02-04T11:38:35;10.10;99.90
60723;DHT22;46574;52.818;6.516;2024-02-04T11:41:03;10.10;99.90
60723;DHT22;46574;52.818;6.516;2024-02-04T11:43:32;10.10;99.90
60723;DHT22;46574;52.818;6.516;2024-02-04T11:45:57;10.10;99.90
60723;DHT22;46574;52.818;6.516;2024-02-04T11:48:38;10.10;99.90
60723;DHT22;46574;52.818;6.516;2024-02-04T11:51:04;10.10;99.90
60723;DHT22;46574;52.818;6.516;2024-02-04T11:53:30;10.10;99.90
60723;DHT22;46574;52.818;6.516;2024-02-04T11:55:58;10.10;99.90
60723;DHT22;46574;52.818;6.516;2024-02-04T11:58:29;10.10;99.90
60723;DHT22;46574;52.818;6.516;2024-02-04T12:00:56;10.10;99.90
60723;DHT22;46574;52.818;6.516;2024-02-04T12:03:33;10.20;99.90
60723;DHT22;46574;52.818;6.516;2024-02-04T12:05:59;10.20;99.90
60723;DHT22;46574;52.818;6.516;2024-02-04T12:08:27;10.20;99.90
60723;DHT22;46574;52.818;6.516;2024-02-04T12:10:53;10.20;99.90
60723;DHT22;46574;52.818;6.516;2024-02-04T12:13:19;10.20;99.90
60723;DHT22;46574;52.818;6.516;2024-02-04T12:15:47;10.20;99.90
60723;DHT22;46574;52.818;6.516;2024-02-04T12:18:13;10.20;99.90
60723;DHT22;46574;52.818;6.516;2024-02-04T12:20:46;10.30;99.90
60723;DHT22;46574;52.818;6.516;2024-02-04T12:23:13;10.30;99.90
60723;DHT22;46574;52.818;6.516;2024-02-04T12:25:39;10.20;99.90
60723;DHT22;46574;52.818;6.516;2024-02-04T12:28:05;10.30;99.90
60723;DHT22;46574;52.818;6.516;2024-02-04T12:30:32;10.30;99.90
60723;DHT22;46574;52.818;6.516;2024-02-04T12:33:09;10.30;99.90
60723;DHT22;46574;52.818;6.516;2024-02-04T12:35:35;10.30;99.90
60723;DHT22;46574;52.818;6.516;2024-02-04T12:38:00;10.30;99.90
60723;DHT22;46574;52.818;6.516;2024-02-04T12:40:28;10.30;99.90
60723;DHT22;46574;52.818;6.516;2024-02-04T12:42:57;10.20;99.90
60723;DHT22;46574;52.818;6.516;2024-02-04T12:45:24;10.20;99.90
60723;DHT22;46574;52.818;6.516;2024-02-04T12:47:52;10.20;99.90
60723;DHT22;46574;52.818;6.516;2024-02-04T12:50:18;10.20;99.90
60723;DHT22;46574;52.818;6.516;2024-02-04T12:52:49;10.20;99.90
60723;DHT22;46574;52.818;6.516;2024-02-04T12:55:23;10.00;99.90
60723;DHT22;46574;52.818;6.516;2024-02-04T12:57:49;10.00;99.90
60723;DHT22;46574;52.818;6.516;2024-02-04T13:00:18;10.10;99.90
60723;DHT22;46574;52.818;6.516;2024-02-04T13:02:44;10.10;99.90
60723;DHT22;46574;52.818;6.516;2024-02-04T13:05:10;10.10;99.90
60723;DHT22;46574;52.818;6.516;2024-02-04T13:07:46;10.20;99.90
60723;DHT22;46574;52.818;6.516;2024-02-04T13:10:16;10.10;99.90
60723;DHT22;46574;52.818;6.516;2024-02-04T13:12:42;10.20;99.90
60723;DHT22;46574;52.818;6.516;2024-02-04T13:15:09;10.10;99.90
60723;DHT22;46574;52.818;6.516;2024-02-04T13:17:34;10.10;99.90
60723;DHT22;46574;52.818;6.516;2024-02-04T13:20:00;10.10;99.90
60723;DHT22;46574;52.818;6.516;2024-02-04T13:22:26;10.10;99.90
60723;DHT22;46574;52.818;6.516;2024-02-04T13:24:51;10.10;99.90
60723;DHT22;46574;52.818;6.516;2024-02-04T13:27:17;10.10;99.90
60723;DHT22;46574;52.818;6.516;2024-02-04T13:29:43;10.20;99.90
60723;DHT22;46574;52.818;6.516;2024-02-04T13:32:08;10.10;99.90
60723;DHT22;46574;52.818;6.516;2024-02-04T13:34:34;10.10;99.90
60723;DHT22;46574;52.818;6.516;2024-02-04T13:37:00;10.20;99.90
60723;DHT22;46574;52.818;6.516;2024-02-04T13:39:25;10.20;99.90
60723;DHT22;46574;52.818;6.516;2024-02-04T13:41:51;10.10;99.90
60723;DHT22;46574;52.818;6.516;2024-02-04T13:44:17;10.10;99.90
60723;DHT22;46574;52.818;6.516;2024-02-04T13:46:42;10.10;99.90
60723;DHT22;46574;52.818;6.516;2024-02-04T13:49:09;10.20;99.90
60723;DHT22;46574;52.818;6.516;2024-02-04T13:51:35;10.20;99.90
60723;DHT22;46574;52.818;6.516;2024-02-04T13:54:01;10.20;99.90
60723;DHT22;46574;52.818;6.516;2024-02-04T13:56:27;10.20;99.90
60723;DHT22;46574;52.818;6.516;2024-02-04T13:58:55;10.20;99.90
60723;DHT22;46574;52.818;6.516;2024-02-04T14:01:20;10.20;99.90
60723;DHT22;46574;52.818;6.516;2024-02-04T14:03:48;10.30;99.90
60723;DHT22;46574;52.818;6.516;2024-02-04T14:06:15;10.30;99.90
60723;DHT22;46574;52.818;6.516;2024-02-04T14:08:40;10.30;99.90
60723;DHT22;46574;52.818;6.516;2024-02-04T14:11:06;10.30;99.90
60723;DHT22;46574;52.818;6.516;2024-02-04T14:13:31;10.30;99.90
60723;DHT22;46574;52.818;6.516;2024-02-04T14:15:58;10.30;99.90
60723;DHT22;46574;52.818;6.516;2024-02-04T14:18:24;10.30;99.90
60723;DHT22;46574;52.818;6.516;2024-02-04T14:20:50;10.30;99.90
60723;DHT22;46574;52.818;6.516;2024-02-04T14:23:16;10.20;99.90
60723;DHT22;46574;52.818;6.516;2024-02-04T14:25:41;10.10;99.90
60723;DHT22;46574;52.818;6.516;2024-02-04T14:28:07;10.10;99.90
60723;DHT22;46574;52.818;6.516;2024-02-04T14:30:32;10.10;99.90
60723;DHT22;46574;52.818;6.516;2024-02-04T14:32:58;10.00;99.90
60723;DHT22;46574;52.818;6.516;2024-02-04T14:35:24;10.00;99.90
60723;DHT22;46574;52.818;6.516;2024-02-04T14:37:49;10.00;99.90
60723;DHT22;46574;52.818;6.516;2024-02-04T14:40:15;9.90;99.90
60723;DHT22;46574;52.818;6.516;2024-02-04T14:42:41;9.90;99.90
60723;DHT22;46574;52.818;6.516;2024-02-04T14:45:07;9.90;99.90
60723;DHT22;46574;52.818;6.516;2024-02-04T14:47:32;9.90;99.90
60723;DHT22;46574;52.818;6.516;2024-02-04T14:49:58;9.80;99.90
60723;DHT22;46574;52.818;6.516;2024-02-04T14:52:24;9.80;99.90
60723;DHT22;46574;52.818;6.516;2024-02-04T14:54:49;9.80;99.90
60723;DHT22;46574;52.818;6.516;2024-02-04T14:57:15;9.80;99.90
60723;DHT22;46574;52.818;6.516;2024-02-04T14:59:42;9.80;99.90
60723;DHT22;46574;52.818;6.516;2024-02-04T15:02:08;9.70;99.90
60723;DHT22;46574;52.818;6.516;2024-02-04T15:04:34;9.70;99.90
60723;DHT22;46574;52.818;6.516;2024-02-04T15:07:00;9.70;99.90
60723;DHT22;46574;52.818;6.516;2024-02-04T15:09:33;9.70;99.90
60723;DHT22;46574;52.818;6.516;2024-02-04T15:11:59;9.70;99.90
60723;DHT22;46574;52.818;6.516;2024-02-04T15:14:26;9.70;99.90
60723;DHT22;46574;52.818;6.516;2024-02-04T15:16:53;9.70;99.90
60723;DHT22;46574;52.818;6.516;2024-02-04T15:19:20;9.70;99.90
60723;DHT22;46574;52.818;6.516;2024-02-04T15:21:46;9.70;99.90
60723;DHT22;46574;52.818;6.516;2024-02-04T15:24:12;9.70;99.90
60723;DHT22;46574;52.818;6.516;2024-02-04T15:26:39;9.80;99.90
60723;DHT22;46574;52.818;6.516;2024-02-04T15:29:06;9.80;99.90
60723;DHT22;46574;52.818;6.516;2024-02-04T15:31:32;9.80;99.90
60723;DHT22;46574;52.818;6.516;2024-02-04T15:34:02;9.90;99.90
60723;DHT22;46574;52.818;6.516;2024-02-04T15:36:33;9.90;99.90
60723;DHT22;46574;52.818;6.516;2024-02-04T15:38:58;9.90;99.90
60723;DHT22;46574;52.818;6.516;2024-02-04T15:41:24;9.90;99.90
60723;DHT22;46574;52.818;6.516;2024-02-04T15:43:49;10.00;99.90
60723;DHT22;46574;52.818;6.516;2024-02-04T15:46:17;10.00;99.90